Time;durP1;ratioP1;P1;durP2;ratioP2;P2;SDS_P1;SDS_P2;PMS_P1;PMS_P2;Temp;Humidity;BMP_temperature;BMP_pressure;BME280_temperature;BME280_humidity;BME280_pressure;Samples;Min_cycle;Max_cycle;Signal;HPM_P1;HPM_P2
2024/01/08 00:01:34;;;;;;;5.75;2.80;;;-1.30;99.90;;;;;;5086222;28;20438;-64
2024/01/08 00:03:59;;;;;;;4.07;2.05;;;-1.30;99.90;;;;;;5087038;28;20048;-64
2024/01/08 00:06:25;;;;;;;5.63;2.45;;;-1.30;99.90;;;;;;5084608;28;20090;-64
2024/01/08 00:08:51;;;;;;;5.32;2.78;;;-1.30;99.90;;;;;;5088213;28;20071;-64
2024/01/08 00:11:16;;;;;;;5.25;2.30;;;-1.30;99.90;;;;;;5071109;28;20047;-64
2024/01/08 00:13:42;;;;;;;4.88;2.10;;;-1.40;99.90;;;;;;5084474;28;20067;-64
2024/01/08 00:16:08;;;;;;;3.58;2.35;;;-1.40;99.90;;;;;;5084338;28;20072;-64
2024/01/08 00:18:33;;;;;;;3.47;2.45;;;-1.40;99.90;;;;;;5086103;28;20075;-64
2024/01/08 00:20:59;;;;;;;3.85;2.22;;;-1.40;99.90;;;;;;5085157;28;20117;-64
2024/01/08 00:23:26;;;;;;;4.70;2.03;;;-1.50;99.90;;;;;;5115346;27;20043;-64
2024/01/08 00:25:51;;;;;;;3.85;2.38;;;-1.50;99.90;;;;;;5085873;28;20039;-64
2024/01/08 00:28:17;;;;;;;4.97;2.30;;;-1.50;99.90;;;;;;5082756;28;20032;-64
2024/01/08 00:30:42;;;;;;;4.30;2.95;;;-1.50;99.90;;;;;;5085086;28;20032;-64
2024/01/08 00:33:09;;;;;;;5.13;2.70;;;-1.50;99.90;;;;;;5085716;28;20047;-64
2024/01/08 00:35:35;;;;;;;4.32;2.67;;;-1.60;99.90;;;;;;5113471;27;20123;-64
2024/01/08 00:38:00;;;;;;;2.75;2.10;;;-1.60;99.90;;;;;;5099209;28;20118;-64
2024/01/08 00:40:26;;;;;;;4.63;2.35;;;-1.70;99.90;;;;;;5087835;28;20056;-65
2024/01/08 00:42:52;;;;;;;6.97;2.33;;;-1.70;99.90;;;;;;5084774;28;20036;-64
2024/01/08 00:45:17;;;;;;;4.22;2.22;;;-1.70;99.90;;;;;;5083255;28;20078;-64
2024/01/08 00:47:43;;;;;;;3.65;2.75;;;-1.70;99.90;;;;;;5119432;27;20078;-64
2024/01/08 00:50:10;;;;;;;7.25;2.78;;;-1.70;99.90;;;;;;5087132;28;20482;-64
2024/01/08 00:52:36;;;;;;;3.78;2.60;;;-1.80;99.90;;;;;;5085523;28;20036;-64
2024/01/08 00:55:04;;;;;;;6.40;2.95;;;-1.80;99.90;;;;;;5085728;28;20046;-64
2024/01/08 00:57:31;;;;;;;3.85;2.80;;;-1.80;99.90;;;;;;5081062;28;20036;-64
2024/01/08 00:59:57;;;;;;;4.57;2.75;;;-1.80;99.90;;;;;;5087458;28;20032;-64
2024/01/08 01:02:22;;;;;;;4.57;3.00;;;-1.80;99.90;;;;;;5084806;28;20482;-64
2024/01/08 01:04:48;;;;;;;4.57;2.70;;;-1.80;99.90;;;;;;5113909;27;20410;-64
2024/01/08 01:07:14;;;;;;;4.05;2.65;;;-1.80;99.90;;;;;;5118613;27;20043;-64
2024/01/08 01:09:39;;;;;;;3.65;2.47;;;-1.80;99.90;;;;;;5117100;27;20100;-64
2024/01/08 01:12:05;;;;;;;5.00;3.05;;;-1.80;99.90;;;;;;5084731;28;20036;-64
2024/01/08 01:14:31;;;;;;;5.03;2.97;;;-1.90;99.90;;;;;;5079357;28;20318;-64
2024/01/08 01:16:57;;;;;;;6.18;2.67;;;-1.90;99.90;;;;;;5084002;28;20043;-64
2024/01/08 01:19:23;;;;;;;5.20;2.95;;;-1.90;99.90;;;;;;5086980;28;20051;-64
2024/01/08 01:21:48;;;;;;;4.95;3.13;;;-1.90;99.90;;;;;;5083264;28;20032;-64
2024/01/08 01:24:14;;;;;;;4.38;2.90;;;-1.90;99.90;;;;;;5083149;28;20059;-64
2024/01/08 01:26:40;;;;;;;4.45;3.00;;;-2.00;99.90;;;;;;5083183;28;20035;-64
2024/01/08 01:29:06;;;;;;;5.10;3.40;;;-1.90;99.90;;;;;;5082471;28;20415;-64
2024/01/08 01:31:33;;;;;;;4.35;2.85;;;-2.00;99.90;;;;;;5114572;27;20063;-64
2024/01/08 01:34:00;;;;;;;3.80;2.55;;;-2.00;99.90;;;;;;5085180;28;20028;-64
2024/01/08 01:36:25;;;;;;;6.10;3.67;;;-2.00;99.90;;;;;;5077549;28;20040;-64
2024/01/08 01:38:51;;;;;;;4.88;3.28;;;-1.90;99.90;;;;;;5109216;27;20049;-64
2024/01/08 01:41:16;;;;;;;4.03;3.05;;;-1.80;99.90;;;;;;5079120;28;20070;-64
2024/01/08 01:43:42;;;;;;;5.85;3.10;;;-1.80;99.90;;;;;;5078949;28;20040;-64
2024/01/08 01:46:21;;;;;;;5.50;3.13;;;-1.80;99.90;;;;;;5080583;28;20122;-64
2024/01/08 01:48:47;;;;;;;5.55;2.63;;;-1.70;99.90;;;;;;5082004;28;20032;-64
2024/01/08 01:51:13;;;;;;;6.13;3.55;;;-1.70;99.90;;;;;;5082220;28;20119;-64
2024/01/08 01:53:39;;;;;;;6.75;3.95;;;-1.70;99.90;;;;;;5110216;27;20036;-64
2024/01/08 01:56:06;;;;;;;5.30;3.53;;;-1.70;99.90;;;;;;5077529;28;20040;-64
2024/01/08 01:58:31;;;;;;;6.75;3.45;;;-1.70;99.90;;;;;;5081907;28;20037;-64
2024/01/08 02:00:57;;;;;;;4.88;2.95;;;-1.70;99.90;;;;;;5078990;28;20044;-64
2024/01/08 02:03:23;;;;;;;5.47;3.60;;;-1.50;99.90;;;;;;5080108;28;20032;-64
2024/01/08 02:05:49;;;;;;;3.80;2.63;;;-1.60;99.90;;;;;;5111525;27;20058;-64
2024/01/08 02:08:15;;;;;;;5.30;3.22;;;-1.60;99.90;;;;;;5108898;27;20032;-64
2024/01/08 02:10:42;;;;;;;5.65;3.35;;;-1.60;99.90;;;;;;5082711;28;20048;-64
2024/01/08 02:13:08;;;;;;;4.20;3.08;;;-1.50;99.90;;;;;;5081427;28;20083;-64
2024/01/08 02:15:34;;;;;;;5.53;3.17;;;-1.50;99.90;;;;;;5065199;28;20517;-64
2024/01/08 02:17:59;;;;;;;8.27;4.22;;;-1.50;99.90;;;;;;5082073;28;20054;-64
2024/01/08 02:20:25;;;;;;;6.63;3.85;;;-1.50;99.90;;;;;;5081152;28;20041;-64
2024/01/08 02:22:51;;;;;;;8.52;3.72;;;-1.50;99.90;;;;;;5082435;28;20139;-64
2024/01/08 02:25:16;;;;;;;5.45;4.05;;;-1.50;99.90;;;;;;5081843;28;20039;-64
2024/01/08 02:27:42;;;;;;;7.40;4.25;;;-1.40;99.90;;;;;;5080619;28;20036;-64
2024/01/08 02:30:08;;;;;;;5.88;3.95;;;-1.40;99.90;;;;;;5080784;28;20036;-64
2024/01/08 02:32:34;;;;;;;6.22;3.90;;;-1.40;99.90;;;;;;5084455;28;20429;-64
2024/01/08 02:34:59;;;;;;;6.72;3.53;;;-1.40;99.90;;;;;;5085067;28;20039;-64
2024/01/08 02:37:25;;;;;;;5.13;3.80;;;-1.30;99.90;;;;;;5079574;28;20497;-64
2024/01/08 02:39:51;;;;;;;6.43;3.90;;;-1.30;99.90;;;;;;5085869;28;20300;-64
2024/01/08 02:42:18;;;;;;;6.90;3.22;;;-1.30;99.90;;;;;;5084602;28;20032;-64
2024/01/08 02:44:44;;;;;;;6.38;3.95;;;-1.30;99.90;;;;;;5077937;28;20059;-64
2024/01/08 02:47:09;;;;;;;7.47;4.25;;;-1.30;99.90;;;;;;5077915;28;20044;-64
2024/01/08 02:49:35;;;;;;;7.38;3.22;;;-1.20;99.90;;;;;;5080770;28;20394;-64
2024/01/08 02:52:01;;;;;;;12.68;4.28;;;-1.10;99.90;;;;;;5085227;28;20036;-64
2024/01/08 02:54:26;;;;;;;7.88;4.85;;;-1.20;99.90;;;;;;5084457;28;20463;-64
2024/01/08 02:56:52;;;;;;;6.53;4.25;;;-1.10;99.90;;;;;;5085355;28;20025;-64
2024/01/08 02:59:17;;;;;;;5.93;4.53;;;-1.10;99.90;;;;;;5085485;28;20093;-64
2024/01/08 03:01:43;;;;;;;9.52;4.45;;;-1.20;99.90;;;;;;5085820;28;20089;-65
2024/01/08 03:04:09;;;;;;;7.75;4.22;;;-1.10;99.90;;;;;;5086414;28;20055;-65
2024/01/08 03:06:34;;;;;;;5.35;3.65;;;-1.10;99.90;;;;;;5086062;28;20508;-64
2024/01/08 03:09:00;;;;;;;6.20;4.03;;;-1.10;99.90;;;;;;5086234;28;20079;-65
2024/01/08 03:11:26;;;;;;;6.45;4.38;;;-1.10;99.90;;;;;;5087964;28;20040;-64
2024/01/08 03:13:51;;;;;;;7.40;4.32;;;-1.10;99.90;;;;;;5087317;28;20044;-64
2024/01/08 03:16:19;;;;;;;7.00;4.63;;;-1.00;99.90;;;;;;5086365;28;20497;-64
2024/01/08 03:18:46;;;;;;;7.00;4.63;;;-1.00;99.90;;;;;;5111616;27;20584;-64
2024/01/08 03:21:12;;;;;;;7.00;4.28;;;-0.90;99.90;;;;;;5087516;28;20035;-64
2024/01/08 03:23:38;;;;;;;8.02;4.97;;;-0.90;99.90;;;;;;5088456;28;20043;-64
2024/01/08 03:26:03;;;;;;;5.65;4.57;;;-0.90;99.90;;;;;;5084790;28;20631;-65
2024/01/08 03:28:29;;;;;;;7.20;4.68;;;-0.90;99.90;;;;;;5082008;28;20123;-64
2024/01/08 03:30:55;;;;;;;6.13;4.72;;;-0.90;99.90;;;;;;5083071;28;20055;-65
2024/01/08 03:33:20;;;;;;;6.35;5.00;;;-0.90;99.90;;;;;;5087293;28;20039;-64
2024/01/08 03:35:46;;;;;;;5.97;4.47;;;-0.90;99.90;;;;;;5084342;28;20437;-64
2024/01/08 03:38:11;;;;;;;5.75;3.83;;;-0.80;99.90;;;;;;5099571;27;20040;-64
2024/01/08 03:40:37;;;;;;;7.60;4.70;;;-0.80;99.90;;;;;;5082156;28;20047;-64
2024/01/08 03:43:03;;;;;;;8.57;5.05;;;-0.80;99.90;;;;;;5083454;28;20044;-64
2024/01/08 03:45:29;;;;;;;7.80;4.75;;;-0.80;99.90;;;;;;5086622;28;20502;-64
2024/01/08 03:47:54;;;;;;;5.05;3.67;;;-0.80;99.90;;;;;;5082973;28;20032;-64
2024/01/08 03:50:20;;;;;;;5.70;3.92;;;-0.80;99.90;;;;;;5081970;28;20029;-64
2024/01/08 03:52:46;;;;;;;5.25;3.50;;;-0.70;99.90;;;;;;5083707;28;20540;-65
2024/01/08 03:55:11;;;;;;;5.55;3.92;;;-0.70;99.90;;;;;;5083676;28;20052;-65
2024/01/08 03:57:37;;;;;;;5.13;3.30;;;-0.70;99.90;;;;;;5083906;28;20036;-64
2024/01/08 04:00:03;;;;;;;6.13;3.35;;;-0.80;99.90;;;;;;5113661;27;20105;-64
2024/01/08 04:02:29;;;;;;;4.13;3.22;;;-0.70;99.90;;;;;;5083895;28;20073;-64
2024/01/08 04:04:55;;;;;;;4.00;2.60;;;-0.70;99.90;;;;;;5083660;28;20044;-64
2024/01/08 04:07:20;;;;;;;3.22;2.38;;;-0.80;99.90;;;;;;5084240;28;20170;-64
2024/01/08 04:09:46;;;;;;;6.85;3.03;;;-0.70;99.90;;;;;;5085012;28;20040;-64
2024/01/08 04:12:13;;;;;;;5.00;3.58;;;-0.70;99.90;;;;;;5086238;28;20048;-64
2024/01/08 04:14:38;;;;;;;6.03;2.40;;;-0.80;99.90;;;;;;5089161;28;20047;-65
2024/01/08 04:17:05;;;;;;;3.58;2.58;;;-0.80;99.90;;;;;;5082583;28;20035;-64
2024/01/08 04:19:31;;;;;;;5.38;2.75;;;-0.70;99.90;;;;;;5088254;28;20059;-64
2024/01/08 04:21:57;;;;;;;4.95;2.63;;;-0.90;99.90;;;;;;5086980;28;20040;-64
2024/01/08 04:24:22;;;;;;;4.78;2.95;;;-0.80;99.90;;;;;;5086759;28;20062;-64
2024/01/08 04:26:48;;;;;;;8.45;3.20;;;-0.80;99.90;;;;;;5082618;28;20058;-64
2024/01/08 04:29:13;;;;;;;5.57;3.28;;;-0.80;99.90;;;;;;5116674;27;20539;-65
2024/01/08 04:31:39;;;;;;;5.43;3.33;;;-0.90;99.90;;;;;;5086417;28;20135;-64
2024/01/08 04:34:05;;;;;;;4.70;3.00;;;-0.80;99.90;;;;;;5087528;28;20028;-64
2024/01/08 04:36:30;;;;;;;5.75;2.67;;;-0.90;99.90;;;;;;5083741;28;20098;-64
2024/01/08 04:38:56;;;;;;;4.72;2.83;;;-0.90;99.90;;;;;;5086532;28;20043;-65
2024/01/08 04:41:22;;;;;;;5.07;3.25;;;-0.90;99.90;;;;;;5085477;28;20070;-64
2024/01/08 04:43:48;;;;;;;4.18;3.08;;;-0.90;99.90;;;;;;5117230;27;20047;-64
2024/01/08 04:46:14;;;;;;;4.18;3.40;;;-1.00;99.90;;;;;;5087105;28;20047;-64
2024/01/08 04:48:41;;;;;;;6.00;3.50;;;-0.90;99.90;;;;;;5084123;28;20024;-65
2024/01/08 04:51:06;;;;;;;7.25;3.88;;;-0.90;99.90;;;;;;5084777;28;20086;-65
2024/01/08 04:53:36;;;;;;;5.97;3.30;;;-1.00;99.90;;;;;;5085713;28;20076;-64
2024/01/08 04:56:02;;;;;;;4.30;2.67;;;-1.00;99.90;;;;;;5081921;28;20036;-64
2024/01/08 04:58:28;;;;;;;4.10;2.90;;;-1.00;99.90;;;;;;5090859;28;20039;-65
2024/01/08 05:00:54;;;;;;;3.72;2.60;;;-1.10;99.90;;;;;;5088903;28;20048;-64
2024/01/08 05:03:19;;;;;;;6.00;3.20;;;-1.10;99.90;;;;;;5083344;28;20044;-65
2024/01/08 05:05:45;;;;;;;5.45;3.10;;;-1.10;99.90;;;;;;5088006;28;20090;-65
2024/01/08 05:08:11;;;;;;;3.63;2.72;;;-1.10;99.90;;;;;;5089253;28;20063;-64
2024/01/08 05:10:36;;;;;;;4.28;2.65;;;-1.20;99.90;;;;;;5114189;27;20128;-64
2024/01/08 05:13:02;;;;;;;4.28;2.78;;;-1.20;99.90;;;;;;5084574;28;20036;-65
2024/01/08 05:15:27;;;;;;;4.20;2.78;;;-1.20;99.90;;;;;;5080682;28;20044;-65
2024/01/08 05:17:53;;;;;;;5.60;3.22;;;-1.20;99.90;;;;;;5082848;28;20036;-65
2024/01/08 05:20:19;;;;;;;3.25;2.30;;;-1.20;99.90;;;;;;5082008;28;20040;-65
2024/01/08 05:22:46;;;;;;;3.25;2.55;;;-1.30;99.90;;;;;;5086462;28;20048;-65
2024/01/08 05:25:11;;;;;;;2.85;2.20;;;-1.30;99.90;;;;;;5081573;28;20126;-65
2024/01/08 05:27:37;;;;;;;3.72;1.50;;;-1.40;99.90;;;;;;5108916;27;20131;-65
2024/01/08 05:30:04;;;;;;;3.67;2.58;;;-1.40;99.90;;;;;;5080057;28;20056;-65
2024/01/08 05:32:29;;;;;;;2.33;1.27;;;-1.40;99.90;;;;;;5111051;27;20052;-64
2024/01/08 05:34:55;;;;;;;4.85;1.73;;;-1.40;99.90;;;;;;5075516;28;20479;-65
2024/01/08 05:37:20;;;;;;;2.45;1.40;;;-1.50;99.90;;;;;;5078589;28;20171;-65
2024/01/08 05:39:46;;;;;;;4.18;1.63;;;-1.40;99.90;;;;;;5077989;28;20413;-65
2024/01/08 05:42:12;;;;;;;3.30;1.50;;;-1.40;99.90;;;;;;5083889;28;20048;-65
2024/01/08 05:44:37;;;;;;;2.67;1.75;;;-1.40;99.90;;;;;;5083948;28;20078;-65
2024/01/08 05:47:04;;;;;;;4.30;1.70;;;-1.40;99.90;;;;;;5084228;28;20478;-65
2024/01/08 05:49:29;;;;;;;3.50;1.73;;;-1.50;99.90;;;;;;5114861;27;20081;-65
2024/01/08 05:51:55;;;;;;;3.15;1.77;;;-1.40;99.90;;;;;;5082156;28;20483;-65
2024/01/08 05:54:20;;;;;;;3.05;1.52;;;-1.40;99.90;;;;;;5083114;28;20021;-65
2024/01/08 05:56:46;;;;;;;3.53;1.88;;;-1.40;99.90;;;;;;5080283;28;20135;-64
2024/01/08 05:59:12;;;;;;;5.40;2.05;;;-1.30;99.90;;;;;;5083750;28;20058;-64
2024/01/08 06:01:39;;;;;;;2.20;1.70;;;-1.40;99.90;;;;;;5086189;28;20063;-65
2024/01/08 06:04:14;;;;;;;3.15;2.13;;;-1.40;99.90;;;;;;5086120;28;20041;-65
2024/01/08 06:06:40;;;;;;;5.03;2.13;;;-1.50;99.90;;;;;;5082725;28;20040;-64
2024/01/08 06:09:08;;;;;;;3.55;2.47;;;-1.40;99.90;;;;;;5067646;28;20109;-65
2024/01/08 06:11:34;;;;;;;3.58;2.58;;;-1.40;99.90;;;;;;5116077;27;20044;-65
2024/01/08 06:14:00;;;;;;;4.32;2.70;;;-1.40;99.90;;;;;;5084248;28;20548;-65
2024/01/08 06:16:30;;;;;;;5.63;3.28;;;-1.40;99.90;;;;;;5115576;27;20478;-65
2024/01/08 06:18:56;;;;;;;6.25;2.00;;;-1.30;99.90;;;;;;5082512;28;20036;-64
2024/01/08 06:21:21;;;;;;;6.95;2.65;;;-1.40;99.90;;;;;;5084409;28;20055;-65
2024/01/08 06:23:47;;;;;;;6.32;3.03;;;-1.30;99.90;;;;;;5080378;28;20036;-65
2024/01/08 06:26:13;;;;;;;8.13;2.47;;;-1.40;99.90;;;;;;5080773;28;20040;-65
2024/01/08 06:28:38;;;;;;;3.90;2.50;;;-1.40;99.90;;;;;;5112329;27;20041;-64
2024/01/08 06:31:04;;;;;;;5.95;2.90;;;-1.30;99.90;;;;;;5082242;28;20043;-65
2024/01/08 06:33:30;;;;;;;4.82;2.80;;;-1.40;99.90;;;;;;5080065;28;20478;-65
2024/01/08 06:35:57;;;;;;;5.15;3.08;;;-1.40;99.90;;;;;;5083715;28;20032;-65
2024/01/08 06:38:22;;;;;;;8.32;3.17;;;-1.30;99.90;;;;;;5081151;28;20028;-65
2024/01/08 06:40:48;;;;;;;4.90;2.75;;;-1.30;99.90;;;;;;5112475;27;20119;-65
2024/01/08 06:43:13;;;;;;;3.85;2.67;;;-1.30;99.90;;;;;;5085634;28;20039;-65
2024/01/08 06:45:40;;;;;;;5.18;2.60;;;-1.30;99.90;;;;;;5078616;28;20520;-65
2024/01/08 06:48:05;;;;;;;11.20;3.85;;;-1.30;99.90;;;;;;5080860;28;20375;-65
2024/01/08 06:50:31;;;;;;;5.90;2.90;;;-1.30;99.90;;;;;;5087735;28;20240;-65
2024/01/08 06:52:57;;;;;;;6.20;3.25;;;-1.30;99.90;;;;;;5081561;28;20060;-64
2024/01/08 06:55:23;;;;;;;6.07;2.60;;;-1.20;99.90;;;;;;5081722;28;20067;-64
2024/01/08 06:57:50;;;;;;;4.22;2.88;;;-1.20;99.90;;;;;;5081727;28;20384;-65
2024/01/08 07:00:18;;;;;;;5.57;2.60;;;-1.20;99.90;;;;;;5108749;27;20032;-65
2024/01/08 07:02:43;;;;;;;5.45;2.75;;;-1.20;99.90;;;;;;5078295;28;20105;-65
2024/01/08 07:05:09;;;;;;;5.70;2.90;;;-1.20;99.90;;;;;;5076012;28;20029;-64
2024/01/08 07:07:38;;;;;;;5.20;3.38;;;-1.20;99.90;;;;;;5080162;28;20473;-65
2024/01/08 07:10:05;;;;;;;7.45;3.13;;;-1.20;99.90;;;;;;5075119;28;20442;-65
2024/01/08 07:12:31;;;;;;;6.85;2.80;;;-1.20;99.90;;;;;;5081717;28;20090;-65
2024/01/08 07:14:57;;;;;;;5.68;3.13;;;-1.20;99.90;;;;;;5080531;28;20031;-65
2024/01/08 07:17:23;;;;;;;16.17;4.38;;;-1.10;99.90;;;;;;5078456;28;20424;-65
2024/01/08 07:19:49;;;;;;;4.75;2.47;;;-1.10;99.90;;;;;;5081368;28;20094;-65
2024/01/08 07:22:15;;;;;;;4.13;2.92;;;-1.10;99.90;;;;;;5081810;28;20051;-65
2024/01/08 07:24:41;;;;;;;6.68;2.90;;;-1.10;99.90;;;;;;5079446;28;20047;-65
2024/01/08 07:27:07;;;;;;;6.40;3.08;;;-1.10;99.90;;;;;;5079870;28;20047;-65
2024/01/08 07:29:33;;;;;;;7.82;2.45;;;-1.10;99.90;;;;;;5078847;28;20052;-65
2024/01/08 07:31:58;;;;;;;5.90;3.25;;;-1.10;99.90;;;;;;5080460;28;20052;-65
2024/01/08 07:34:24;;;;;;;4.55;2.60;;;-1.10;99.90;;;;;;5084914;28;20052;-65
2024/01/08 07:36:50;;;;;;;6.30;2.88;;;-1.10;99.90;;;;;;5082151;28;20025;-65
2024/01/08 07:39:15;;;;;;;7.43;3.40;;;-1.00;99.90;;;;;;5081386;28;20544;-65
2024/01/08 07:41:41;;;;;;;5.00;2.55;;;-1.10;99.90;;;;;;5116959;27;20055;-65
2024/01/08 07:44:07;;;;;;;8.10;2.63;;;-1.00;99.90;;;;;;5084948;28;20410;-65
2024/01/08 07:46:33;;;;;;;6.40;2.30;;;-0.90;99.90;;;;;;5081745;28;20040;-65
2024/01/08 07:48:58;;;;;;;4.22;2.40;;;-1.00;99.90;;;;;;5083246;28;20072;-65
2024/01/08 07:51:25;;;;;;;5.10;2.70;;;-1.00;99.90;;;;;;5089314;28;20076;-64
2024/01/08 07:53:52;;;;;;;5.95;3.00;;;-0.90;99.90;;;;;;5083659;28;20028;-64
2024/01/08 07:56:23;;;;;;;5.38;2.28;;;-0.90;99.90;;;;;;5083535;28;20117;-64
2024/01/08 07:58:49;;;;;;;3.15;2.50;;;-0.90;99.90;;;;;;5083444;28;20836;-64
2024/01/08 08:01:18;;;;;;;5.20;2.35;;;-0.90;99.90;;;;;;5084416;28;20047;-64
2024/01/08 08:03:43;;;;;;;6.93;2.33;;;-0.80;99.90;;;;;;5082168;28;20036;-64
2024/01/08 08:06:09;;;;;;;2.95;2.35;;;-0.90;99.90;;;;;;5081489;28;20093;-63
2024/01/08 08:08:35;;;;;;;4.28;1.98;;;-0.80;99.90;;;;;;5085466;28;20031;-63
2024/01/08 08:11:03;;;;;;;4.05;2.10;;;-0.80;99.90;;;;;;5081957;28;20052;-63
2024/01/08 08:13:30;;;;;;;5.10;2.28;;;-0.80;99.90;;;;;;5083915;28;20044;-63
2024/01/08 08:15:56;;;;;;;4.13;1.98;;;-0.80;99.90;;;;;;5066738;28;20420;-63
2024/01/08 08:18:22;;;;;;;5.00;2.22;;;-0.80;99.90;;;;;;5083528;28;20109;-63
2024/01/08 08:20:53;;;;;;;5.05;2.35;;;-0.70;99.90;;;;;;5088020;28;20517;-63
2024/01/08 08:23:18;;;;;;;8.65;2.22;;;-0.80;99.90;;;;;;5080720;28;20452;-63
2024/01/08 08:25:44;;;;;;;5.95;2.42;;;-0.70;99.90;;;;;;5117085;27;20126;-63
2024/01/08 08:28:10;;;;;;;3.67;1.75;;;-0.70;99.90;;;;;;5083825;28;20486;-62
2024/01/08 08:30:35;;;;;;;3.90;1.88;;;-0.70;99.90;;;;;;5084916;28;20034;-63
2024/01/08 08:33:01;;;;;;;3.20;2.33;;;-0.70;99.90;;;;;;5074908;28;20805;-63
2024/01/08 08:35:27;;;;;;;6.85;2.50;;;-0.60;99.90;;;;;;5080405;28;20119;-63
2024/01/08 08:37:53;;;;;;;5.22;2.50;;;-0.60;99.90;;;;;;5083182;28;20076;-63
2024/01/08 08:40:18;;;;;;;2.95;2.30;;;-0.60;99.90;;;;;;5079669;28;20509;-63
2024/01/08 08:42:44;;;;;;;3.97;2.17;;;-0.60;99.90;;;;;;5081063;28;20040;-62
2024/01/08 08:45:10;;;;;;;5.65;2.60;;;-0.60;99.90;;;;;;5079269;28;20050;-63
2024/01/08 08:47:35;;;;;;;5.55;2.30;;;-0.60;99.90;;;;;;5089622;28;20534;-63
2024/01/08 08:50:01;;;;;;;8.10;2.00;;;-0.50;99.90;;;;;;5109118;27;20143;-63
2024/01/08 08:52:26;;;;;;;3.30;2.17;;;-0.60;99.90;;;;;;5079593;28;20090;-63
2024/01/08 08:54:52;;;;;;;2.50;1.90;;;-0.50;99.90;;;;;;5084566;28;20074;-63
2024/01/08 08:57:18;;;;;;;4.40;2.17;;;-0.50;99.90;;;;;;5113893;27;20123;-63
2024/01/08 08:59:43;;;;;;;4.30;2.25;;;-0.50;99.90;;;;;;5083408;28;20043;-63
2024/01/08 09:02:09;;;;;;;4.50;1.95;;;-0.50;99.90;;;;;;5113442;27;20048;-62
2024/01/08 09:04:35;;;;;;;4.85;2.10;;;-0.50;99.90;;;;;;5081309;28;20040;-63
2024/01/08 09:07:01;;;;;;;6.10;2.17;;;-0.50;99.90;;;;;;5109710;27;20460;-63
2024/01/08 09:09:26;;;;;;;5.00;2.42;;;-0.50;99.90;;;;;;5079469;28;20739;-63
2024/01/08 09:11:52;;;;;;;5.30;1.90;;;-0.50;99.90;;;;;;5082600;28;20102;-63
2024/01/08 09:14:18;;;;;;;6.32;2.28;;;-0.50;99.90;;;;;;5084047;28;20083;-63
2024/01/08 09:16:44;;;;;;;2.97;1.92;;;-0.50;99.90;;;;;;5085315;28;20466;-63
2024/01/08 09:19:09;;;;;;;3.67;1.60;;;-0.50;99.90;;;;;;5080967;28;20066;-63
2024/01/08 09:21:35;;;;;;;3.83;2.03;;;-0.50;99.90;;;;;;5087433;28;20124;-63
2024/01/08 09:24:01;;;;;;;4.72;2.17;;;-0.40;99.90;;;;;;5079708;28;20036;-63
2024/01/08 09:26:26;;;;;;;3.92;2.05;;;-0.40;99.90;;;;;;5083969;28;20036;-63
2024/01/08 09:28:52;;;;;;;7.07;2.20;;;-0.40;99.90;;;;;;5084458;28;20068;-63
2024/01/08 09:31:17;;;;;;;3.63;1.90;;;-0.40;99.90;;;;;;5078588;28;20521;-63
2024/01/08 09:33:43;;;;;;;3.78;1.92;;;-0.30;99.90;;;;;;5080905;28;20036;-63
2024/01/08 09:36:09;;;;;;;4.70;1.77;;;-0.40;99.90;;;;;;5064185;28;20089;-63
2024/01/08 09:38:35;;;;;;;3.97;1.85;;;-0.30;99.90;;;;;;5080983;28;20044;-63
2024/01/08 09:41:01;;;;;;;4.70;1.35;;;-0.30;99.90;;;;;;5082993;28;20051;-63
2024/01/08 09:43:28;;;;;;;4.43;3.00;;;-0.30;99.90;;;;;;5082260;28;20075;-63
2024/01/08 09:46:10;;;;;;;4.70;1.90;;;-0.30;99.90;;;;;;5081342;28;20732;-63
2024/01/08 09:48:36;;;;;;;3.05;1.33;;;-0.30;99.90;;;;;;5078582;28;20452;-63
2024/01/08 09:51:03;;;;;;;3.90;1.30;;;-0.30;99.90;;;;;;5082394;28;20032;-63
2024/01/08 09:53:30;;;;;;;3.97;2.25;;;-0.30;99.90;;;;;;5113981;27;20071;-63
2024/01/08 09:55:57;;;;;;;5.97;2.22;;;-0.20;99.90;;;;;;5083333;28;20090;-63
2024/01/08 09:58:23;;;;;;;4.22;2.13;;;-0.20;99.90;;;;;;5081717;28;20044;-63
2024/01/08 10:00:49;;;;;;;2.33;1.40;;;-0.20;99.90;;;;;;5084350;28;20032;-63
2024/01/08 10:03:14;;;;;;;4.57;1.85;;;-0.20;99.90;;;;;;5071699;28;20039;-63
2024/01/08 10:05:40;;;;;;;6.05;2.00;;;-0.20;99.90;;;;;;5080146;28;20051;-63
2024/01/08 10:08:06;;;;;;;3.47;1.48;;;-0.20;99.90;;;;;;5113979;27;20050;-63
2024/01/08 10:10:32;;;;;;;6.90;1.77;;;-0.20;99.90;;;;;;5079666;28;20039;-63
2024/01/08 10:12:59;;;;;;;8.30;2.42;;;-0.20;99.90;;;;;;5082092;28;20046;-63
2024/01/08 10:15:25;;;;;;;4.10;1.88;;;-0.20;99.90;;;;;;5080605;28;20448;-63
2024/01/08 10:17:51;;;;;;;2.92;1.42;;;-0.10;99.90;;;;;;5118497;27;20491;-63
2024/01/08 10:20:18;;;;;;;5.75;2.03;;;-0.10;99.90;;;;;;5079565;28;20071;-63
2024/01/08 10:22:45;;;;;;;3.15;1.80;;;0.00;99.90;;;;;;5080229;28;20119;-63
2024/01/08 10:25:11;;;;;;;4.85;2.05;;;0.00;99.90;;;;;;5114357;27;20054;-63
2024/01/08 10:27:37;;;;;;;3.90;1.58;;;0.20;99.90;;;;;;5080544;28;20035;-63
2024/01/08 10:30:04;;;;;;;3.33;1.77;;;0.20;99.90;;;;;;5080537;28;20051;-63
2024/01/08 10:32:29;;;;;;;4.68;2.00;;;0.40;99.90;;;;;;5077566;28;20031;-63
2024/01/08 10:34:56;;;;;;;3.00;1.35;;;0.40;99.90;;;;;;5080341;28;20539;-63
2024/01/08 10:37:22;;;;;;;3.13;1.73;;;0.40;99.90;;;;;;5081741;28;20626;-63
2024/01/08 10:39:49;;;;;;;3.83;1.77;;;0.30;99.90;;;;;;5080970;28;20281;-64
2024/01/08 10:42:14;;;;;;;4.25;1.60;;;0.20;99.90;;;;;;5080568;28;20051;-63
2024/01/08 10:44:40;;;;;;;2.83;1.77;;;0.20;99.90;;;;;;5079573;28;20044;-63
2024/01/08 10:47:09;;;;;;;5.97;1.40;;;0.10;99.90;;;;;;5064638;28;20044;-63
2024/01/08 10:49:36;;;;;;;4.28;1.42;;;0.10;99.90;;;;;;5111997;27;20072;-63
2024/01/08 10:52:32;;;;;;;2.15;1.48;;;0.10;99.90;;;;;;5082132;28;20091;-63
2024/01/08 10:54:59;;;;;;;3.45;1.55;;;0.10;99.90;;;;;;5076765;28;20494;-63
2024/01/08 10:57:43;;;;;;;3.00;1.45;;;0.10;99.90;;;;;;5080085;28;20045;-63
2024/01/08 11:00:10;;;;;;;3.25;1.45;;;0.20;99.90;;;;;;5114629;27;20063;-63
2024/01/08 11:02:39;;;;;;;2.20;1.55;;;0.20;99.90;;;;;;5082296;28;20040;-63
2024/01/08 11:05:06;;;;;;;2.22;1.27;;;0.20;99.90;;;;;;5115308;27;20278;-63
2024/01/08 11:07:37;;;;;;;2.85;1.15;;;0.30;99.90;;;;;;5078778;28;20093;-63
2024/01/08 11:10:07;;;;;;;3.67;1.33;;;0.30;99.90;;;;;;5086244;28;20044;-63
2024/01/08 11:12:40;;;;;;;1.85;0.98;;;0.30;99.90;;;;;;5084998;28;20386;-63
2024/01/08 11:15:06;;;;;;;3.03;1.40;;;0.30;99.90;;;;;;5084350;28;20029;-63
2024/01/08 11:17:33;;;;;;;2.95;1.75;;;0.30;99.90;;;;;;5116483;27;20044;-64
2024/01/08 11:19:59;;;;;;;2.85;1.20;;;0.30;99.90;;;;;;5081413;28;20052;-63
2024/01/08 11:22:25;;;;;;;2.70;1.73;;;0.40;99.90;;;;;;5081160;28;20126;-63
2024/01/08 11:24:57;;;;;;;3.10;0.98;;;0.40;99.90;;;;;;5083267;28;20153;-63
2024/01/08 11:27:24;;;;;;;3.17;1.30;;;0.40;99.90;;;;;;5084751;28;20048;-63
2024/01/08 11:30:01;;;;;;;4.93;1.15;;;0.40;99.90;;;;;;5101597;27;20048;-63
2024/01/08 11:32:55;;;;;;;2.90;1.20;;;0.40;99.90;;;;;;5099225;27;20043;-63
2024/01/08 11:35:27;;;;;;;3.40;1.27;;;0.40;99.90;;;;;;5091071;28;20041;-63
2024/01/08 11:38:22;;;;;;;9.10;1.80;;;0.40;99.90;;;;;;5081534;28;20075;-63
2024/01/08 11:40:48;;;;;;;2.60;1.52;;;0.40;99.90;;;;;;5069194;28;20105;-63
2024/01/08 11:43:14;;;;;;;2.80;1.38;;;0.40;99.90;;;;;;5083219;28;20139;-63
2024/01/08 11:45:40;;;;;;;4.65;1.50;;;0.30;99.90;;;;;;5082052;28;20228;-63
2024/01/08 11:48:07;;;;;;;3.85;1.23;;;0.30;99.90;;;;;;5082600;28;20470;-63
2024/01/08 11:50:33;;;;;;;3.70;1.77;;;0.30;99.90;;;;;;5081434;28;20503;-63
2024/01/08 11:53:00;;;;;;;3.03;1.30;;;0.40;99.90;;;;;;5080210;28;20081;-63
2024/01/08 11:55:27;;;;;;;3.25;1.40;;;0.60;99.90;;;;;;5068965;28;20040;-63
2024/01/08 11:57:53;;;;;;;3.90;1.45;;;0.80;99.90;;;;;;5083462;28;20032;-63
2024/01/08 12:00:20;;;;;;;5.57;1.08;;;0.90;99.90;;;;;;5082783;28;20104;-63
2024/01/08 12:02:47;;;;;;;3.40;1.20;;;0.80;99.90;;;;;;5087423;28;20044;-63
2024/01/08 12:05:13;;;;;;;1.80;1.02;;;0.90;99.90;;;;;;5087918;28;20040;-63
2024/01/08 12:07:38;;;;;;;2.85;1.45;;;1.00;99.90;;;;;;5079996;28;20046;-63
2024/01/08 12:10:06;;;;;;;6.80;1.40;;;1.00;99.90;;;;;;5086501;28;20043;-63
2024/01/08 12:12:32;;;;;;;3.20;1.17;;;0.80;99.90;;;;;;5085904;28;20040;-63
2024/01/08 12:14:58;;;;;;;3.70;1.20;;;0.80;99.90;;;;;;5082907;28;20191;-63
2024/01/08 12:17:24;;;;;;;2.30;1.55;;;0.70;99.90;;;;;;5083751;28;20058;-63
2024/01/08 12:19:52;;;;;;;3.10;1.52;;;0.50;99.90;;;;;;5079532;28;20047;-63
2024/01/08 12:22:19;;;;;;;3.63;1.30;;;0.60;99.90;;;;;;5081409;28;20463;-63
2024/01/08 12:24:51;;;;;;;2.33;1.15;;;0.60;99.90;;;;;;5112939;27;20048;-64
2024/01/08 12:27:19;;;;;;;2.58;1.25;;;0.60;99.90;;;;;;5119799;27;20052;-63
2024/01/08 12:29:47;;;;;;;5.10;1.60;;;0.70;99.90;;;;;;5096992;27;20051;-63
2024/01/08 12:32:14;;;;;;;5.00;1.60;;;0.70;99.90;;;;;;5081808;28;20417;-63
2024/01/08 12:34:40;;;;;;;4.25;1.50;;;0.70;99.90;;;;;;5084686;28;20546;-63
2024/01/08 12:37:07;;;;;;;2.00;1.10;;;0.80;99.90;;;;;;5083284;28;20086;-63
2024/01/08 12:39:34;;;;;;;3.38;1.52;;;0.80;99.90;;;;;;5088870;28;20174;-63
2024/01/08 12:42:04;;;;;;;2.38;1.45;;;0.70;99.90;;;;;;5084651;28;20084;-63
2024/01/08 12:44:32;;;;;;;2.97;1.35;;;0.60;99.90;;;;;;5081605;28;20053;-63